Beaver Creek, Ohio
Current Conditions -  °F | °C
As of 12:58 AM on Wednesday 22 Oct 2014 (Local Time) from KFFO Reporting Station
Overcast Overcast  
Wind Chill: 40°   Ceiling: 3500
Heat Index: 45°   Visibility: 10mi
Dew Point: 39°   Wind: 9mph
Humidity: 78%   Direction: 350°N
Pressure: 30.18"   Gusts: NA
Location:  39.7649°N, 84.0863°W
Report Text: KFFO 220458Z AUTO 35008KT 10SM OVC035 07/04 A3018 RMK AO2 SLP226 T00730037 401220073
Loading
Personal Weather Stations






























Interactive Weather Map
Tropical Storm Tracking
New forecast layout! Learn more

10-Day Weather Forecast

Advertisements
Track Severe Weather on mobile